Time;durP1;ratioP1;P1;durP2;ratioP2;P2;SDS_P1;SDS_P2;PMS_P1;PMS_P2;Temp;Humidity;BMP_temperature;BMP_pressure;BME280_temperature;BME280_humidity;BME280_pressure;Samples;Min_cycle;Max_cycle;Signal;HPM_P1;HPM_P2
2023/09/19 00:00:57;;;;;;;8.03;1.90;;;;;;;-145.18;100.00;46633.06;5011670;28;20093;-62
2023/09/19 00:03:23;;;;;;;7.57;2.40;;;;;;;-145.18;100.00;46635.00;5000497;28;20037;-61
2023/09/19 00:05:50;;;;;;;7.03;1.83;;;;;;;-145.18;100.00;46636.94;5007080;28;20101;-62
2023/09/19 00:08:16;;;;;;;10.03;1.90;;;;;;;-145.18;100.00;46633.06;5004510;28;20382;-62
2023/09/19 00:10:42;;;;;;;8.20;2.43;;;;;;;-145.18;100.00;46635.00;5002226;28;20018;-62
2023/09/19 00:13:12;;;;;;;11.20;2.30;;;;;;;-145.18;100.00;46636.94;5009604;28;20489;-62
2023/09/19 00:15:40;;;;;;;8.97;1.70;;;;;;;-145.18;100.00;46660.41;5012629;28;20026;-62
2023/09/19 00:18:07;;;;;;;8.37;2.00;;;;;;;-145.18;100.00;46635.00;5011805;28;20132;-62
2023/09/19 00:20:34;;;;;;;21.10;4.07;;;;;;;-145.18;100.00;46633.06;5011998;28;20045;-62
2023/09/19 00:23:05;;;;;;;13.63;2.37;;;;;;;-145.18;100.00;46636.94;4994181;28;20414;-62
2023/09/19 00:25:35;;;;;;;19.53;3.03;;;;;;;-145.18;100.00;46635.00;5012361;28;20026;-61
2023/09/19 00:28:01;;;;;;;7.83;1.70;;;;;;;-145.18;100.00;46635.00;5011801;28;20022;-62
2023/09/19 00:30:27;;;;;;;10.13;2.37;;;;;;;-145.18;100.00;46635.00;5011970;28;20034;-62
2023/09/19 00:32:55;;;;;;;13.93;2.00;;;;;;;-145.18;100.00;46640.88;5012135;28;20056;-61
2023/09/19 00:35:24;;;;;;;8.50;2.07;;;;;;;-145.18;100.00;46638.91;5009075;28;20030;-61
2023/09/19 00:37:50;;;;;;;17.17;2.13;;;;;;;-145.18;100.00;46638.91;5003916;28;20022;-62
2023/09/19 00:40:16;;;;;;;10.27;2.50;;;;;;;-145.18;100.00;46640.88;5011632;28;20470;-61
2023/09/19 00:42:42;;;;;;;7.97;1.97;;;;;;;-145.18;100.00;46638.91;5009701;28;20080;-61
2023/09/19 00:45:11;;;;;;;10.83;1.70;;;;;;;-145.18;100.00;46640.88;5008943;28;20029;-62
2023/09/19 00:47:51;;;;;;;12.70;2.20;;;;;;;-145.18;100.00;46640.88;5012111;28;20021;-61
2023/09/19 00:50:19;;;;;;;12.17;2.27;;;;;;;-145.18;100.00;46644.78;5011881;28;20022;-62
2023/09/19 00:52:46;;;;;;;9.63;2.63;;;;;;;-145.18;100.00;46644.78;5010619;28;20107;-61
2023/09/19 00:55:14;;;;;;;9.27;1.57;;;;;;;-145.18;100.00;46648.69;5004121;28;20049;-62
2023/09/19 00:57:39;;;;;;;9.50;2.00;;;;;;;-145.18;100.00;46648.69;5012073;28;20026;-61
2023/09/19 01:00:08;;;;;;;8.07;2.00;;;;;;;-145.18;100.00;46652.59;5011773;28;20030;-62
2023/09/19 01:02:34;;;;;;;9.37;2.00;;;;;;;-145.18;100.00;46652.59;5011890;28;20379;-62
2023/09/19 01:05:00;;;;;;;9.97;1.80;;;;;;;-145.18;100.00;46656.50;5002948;28;20042;-61
2023/09/19 01:07:30;;;;;;;6.97;2.10;;;;;;;-145.18;100.00;46652.59;5014677;28;21232;-61
2023/09/19 01:09:58;;;;;;;9.80;1.77;;;;;;;-145.18;100.00;46654.53;4997425;28;20470;-62
2023/09/19 01:12:40;;;;;;;5.97;1.97;;;;;;;-145.18;100.00;46656.50;5009245;28;20042;-62
2023/09/19 01:15:24;;;;;;;14.70;1.70;;;;;;;-145.18;100.00;46650.63;5015155;28;20504;-62
2023/09/19 01:17:56;;;;;;;11.97;1.63;;;;;;;-145.18;100.00;46654.53;5014785;28;20025;-61
2023/09/19 01:20:39;;;;;;;12.83;1.97;;;;;;;-145.18;100.00;46656.50;5015152;28;20490;-61
2023/09/19 01:23:36;;;;;;;10.20;1.70;;;;;;;-145.18;100.00;46658.44;4998737;28;20037;-62
2023/09/19 01:26:18;;;;;;;7.63;2.00;;;;;;;-145.18;100.00;46656.50;5014690;28;20040;-62
2023/09/19 01:29:13;;;;;;;8.43;1.87;;;;;;;-145.18;100.00;46656.50;5010359;28;20044;-62
2023/09/19 01:31:42;;;;;;;6.87;1.33;;;;;;;-145.18;100.00;46660.41;4984707;28;20515;-62
2023/09/19 01:34:08;;;;;;;4.47;1.47;;;;;;;-145.18;100.00;46660.41;5014653;28;20033;-62
2023/09/19 01:36:38;;;;;;;14.07;2.00;;;;;;;-145.18;100.00;46660.41;5015597;28;20034;-62
2023/09/19 01:39:15;;;;;;;7.63;1.60;;;;;;;-145.18;100.00;46660.41;5010422;28;20053;-62
2023/09/19 01:41:55;;;;;;;10.37;1.80;;;;;;;-145.18;100.00;46662.34;5014677;28;20065;-62
2023/09/19 01:44:35;;;;;;;8.90;2.23;;;;;;;-145.18;100.00;46664.31;5014985;28;20038;-71
2023/09/19 01:47:06;;;;;;;12.73;1.90;;;;;;;-145.18;100.00;46656.50;5014692;28;20036;-71
2023/09/19 01:49:57;;;;;;;7.03;1.53;;;;;;;-145.18;100.00;46662.34;5014663;28;20022;-70
2023/09/19 01:52:28;;;;;;;10.93;1.97;;;;;;;-145.18;100.00;46666.25;5014515;28;20501;-71
2023/09/19 01:54:59;;;;;;;9.80;1.97;;;;;;;-145.18;100.00;46662.34;5004694;28;20500;-71
2023/09/19 01:57:32;;;;;;;10.30;1.90;;;;;;;-145.18;100.00;46668.22;5013239;28;20379;-71
2023/09/19 02:00:22;;;;;;;7.67;1.80;;;;;;;-145.18;100.00;46668.22;5014589;28;20151;-71
2023/09/19 02:02:48;;;;;;;10.43;1.77;;;;;;;-145.18;100.00;46666.25;5004894;28;20026;-71
2023/09/19 02:05:24;;;;;;;11.90;1.83;;;;;;;-145.18;100.00;46666.25;5014365;28;20034;-71
2023/09/19 02:07:50;;;;;;;10.23;1.58;;;;;;;-145.18;100.00;46676.03;5013504;28;20026;-71
2023/09/19 02:10:16;;;;;;;9.17;2.10;;;;;;;-145.18;100.00;46672.13;5006285;28;20042;-71
2023/09/19 02:12:42;;;;;;;10.50;2.17;;;;;;;-145.18;100.00;46670.16;4996814;28;20038;-71
2023/09/19 02:15:08;;;;;;;9.57;2.17;;;;;;;-145.18;100.00;46681.88;5014096;28;20038;-71
2023/09/19 02:17:33;;;;;;;10.30;1.47;;;;;;;-145.18;100.00;46674.06;5014228;28;20079;-71
2023/09/19 02:20:00;;;;;;;8.43;1.93;;;;;;;-145.18;100.00;46677.97;5013929;28;20052;-71
2023/09/19 02:22:26;;;;;;;6.03;1.50;;;;;;;-145.18;100.00;46676.03;5014180;28;20604;-71
2023/09/19 02:24:52;;;;;;;14.57;2.00;;;;;;;-145.18;100.00;46676.03;5009721;28;20524;-71
2023/09/19 02:27:18;;;;;;;10.73;2.30;;;;;;;-145.18;100.00;46676.03;5014129;28;20034;-71
2023/09/19 02:29:43;;;;;;;10.07;1.47;;;;;;;-145.18;100.00;46670.16;5013771;28;20276;-71
2023/09/19 02:32:11;;;;;;;8.40;1.47;;;;;;;-145.18;100.00;46668.22;5013708;28;20061;-71
2023/09/19 02:34:38;;;;;;;10.23;1.53;;;;;;;-145.18;100.00;46674.06;5012436;28;20050;-71
2023/09/19 02:37:05;;;;;;;10.43;1.67;;;;;;;-145.18;100.00;46677.97;5010761;28;20037;-71
2023/09/19 02:39:31;;;;;;;15.33;1.93;;;;;;;-145.18;100.00;46672.13;5013829;28;20517;-71
2023/09/19 02:41:56;;;;;;;7.30;1.67;;;;;;;-145.18;100.00;46674.06;5001560;28;20033;-71
2023/09/19 02:44:23;;;;;;;10.90;1.90;;;;;;;-145.18;100.00;46674.06;5013701;28;20034;-71
2023/09/19 02:46:49;;;;;;;18.40;1.90;;;;;;;-145.18;100.00;46681.88;5013631;28;20419;-71
2023/09/19 02:49:14;;;;;;;7.43;1.27;;;;;;;-145.18;100.00;46683.84;5013800;28;20033;-71
2023/09/19 02:51:40;;;;;;;11.73;1.80;;;;;;;-145.18;100.00;46677.97;5013420;28;20040;-71
2023/09/19 02:54:05;;;;;;;9.33;1.50;;;;;;;-145.18;100.00;46691.66;5013828;28;20500;-71
2023/09/19 02:56:32;;;;;;;15.17;1.57;;;;;;;-145.18;100.00;46693.59;5013013;28;20033;-71
2023/09/19 02:58:57;;;;;;;8.20;1.97;;;;;;;-145.18;100.00;46681.88;5012292;28;20113;-71
2023/09/19 03:01:23;;;;;;;9.07;1.50;;;;;;;-145.18;100.00;46683.84;5013195;28;20180;-71
2023/09/19 03:03:49;;;;;;;7.57;1.50;;;;;;;-145.18;100.00;46693.59;5013326;28;20025;-71
2023/09/19 03:06:15;;;;;;;13.47;2.03;;;;;;;-145.18;100.00;46676.03;5013256;28;20028;-71
2023/09/19 03:08:42;;;;;;;8.13;1.73;;;;;;;-145.18;100.00;46681.88;5013480;28;20025;-71
2023/09/19 03:11:11;;;;;;;8.17;1.57;;;;;;;-145.18;100.00;46687.75;5000997;28;20192;-71
2023/09/19 03:13:37;;;;;;;15.40;1.73;;;;;;;-145.18;100.00;46691.66;5013380;28;20021;-71
2023/09/19 03:16:05;;;;;;;14.07;1.73;;;;;;;-145.18;100.00;46683.84;5009107;28;20022;-71
2023/09/19 03:18:32;;;;;;;9.13;2.13;;;;;;;-145.18;100.00;46687.75;5013336;28;20053;-71
2023/09/19 03:20:59;;;;;;;7.10;1.53;;;;;;;-145.18;100.00;46683.84;5012885;28;20485;-71
2023/09/19 03:23:26;;;;;;;10.87;2.33;;;;;;;-145.18;100.00;46685.78;5013293;28;20076;-71
2023/09/19 03:25:52;;;;;;;6.20;2.20;;;;;;;-145.18;100.00;46677.97;5011999;28;20022;-71
2023/09/19 03:28:18;;;;;;;9.13;1.60;;;;;;;-145.18;100.00;46679.94;5003643;28;20049;-71
2023/09/19 03:30:44;;;;;;;9.17;1.97;;;;;;;-145.18;100.00;46693.59;5010268;28;20470;-71
2023/09/19 03:33:11;;;;;;;14.87;2.43;;;;;;;-145.18;100.00;46679.94;5013195;28;20079;-71
2023/09/19 03:35:38;;;;;;;11.43;2.17;;;;;;;-145.18;100.00;46695.56;5004051;28;20022;-71
2023/09/19 03:38:04;;;;;;;12.60;2.07;;;;;;;-145.18;100.00;46681.88;5013098;28;20026;-71
2023/09/19 03:40:30;;;;;;;9.13;1.83;;;;;;;-145.18;100.00;46695.56;5012432;28;20017;-71
2023/09/19 03:42:55;;;;;;;11.60;2.13;;;;;;;-145.18;100.00;46695.56;5012925;28;20121;-71
2023/09/19 03:45:21;;;;;;;12.43;2.83;;;;;;;-145.18;100.00;46693.59;5007426;28;20091;-71
2023/09/19 03:47:49;;;;;;;9.50;1.70;;;;;;;-145.18;100.00;46695.56;5012858;28;20418;-71
2023/09/19 03:50:17;;;;;;;9.93;2.23;;;;;;;-145.18;100.00;46695.56;5012622;28;20034;-71
2023/09/19 03:52:44;;;;;;;9.10;1.80;;;;;;;-145.18;100.00;46687.75;5012150;28;20038;-71
2023/09/19 03:55:09;;;;;;;7.90;1.80;;;;;;;-145.18;100.00;46699.47;5012605;28;20075;-71
2023/09/19 03:57:36;;;;;;;6.83;1.63;;;;;;;-145.18;100.00;46695.56;5012579;28;20484;-71
2023/09/19 04:00:02;;;;;;;14.00;2.00;;;;;;;-145.18;100.00;46695.56;5011455;28;20075;-71
2023/09/19 04:02:32;;;;;;;8.50;1.60;;;;;;;-145.18;100.00;46693.59;5007089;28;20509;-71
2023/09/19 04:04:58;;;;;;;8.33;1.60;;;;;;;-145.18;100.00;46697.50;5011974;28;20395;-71
2023/09/19 04:07:25;;;;;;;9.43;1.97;;;;;;;-145.18;100.00;46695.56;5012487;28;20088;-71
2023/09/19 04:09:53;;;;;;;10.13;2.00;;;;;;;-145.18;100.00;46691.66;4994591;28;20034;-71
2023/09/19 04:12:18;;;;;;;7.80;1.47;;;;;;;-145.18;100.00;46691.66;5005723;28;20041;-71
2023/09/19 04:14:44;;;;;;;8.03;1.60;;;;;;;-145.18;100.00;46685.78;5012024;28;20022;-71
2023/09/19 04:17:10;;;;;;;9.57;1.87;;;;;;;-145.18;100.00;46697.50;5012390;28;20057;-71
2023/09/19 04:19:36;;;;;;;8.80;1.97;;;;;;;-145.18;100.00;46691.66;5011464;28;20042;-71
2023/09/19 04:22:01;;;;;;;9.37;1.63;;;;;;;-145.18;100.00;46689.69;5006621;28;20185;-71
2023/09/19 04:24:27;;;;;;;9.83;1.30;;;;;;;-145.18;100.00;46687.75;5010312;28;20022;-71
2023/09/19 04:26:52;;;;;;;7.10;1.50;;;;;;;-145.18;100.00;46681.88;5011995;28;20037;-71
2023/09/19 04:29:19;;;;;;;9.70;2.47;;;;;;;-145.18;100.00;46677.97;5010469;28;20022;-71
2023/09/19 04:31:45;;;;;;;7.57;1.93;;;;;;;-145.18;100.00;46689.69;5005413;28;20034;-71
2023/09/19 04:34:14;;;;;;;13.17;1.93;;;;;;;-145.18;100.00;46693.59;5005670;28;20033;-71
2023/09/19 04:36:39;;;;;;;11.40;1.87;;;;;;;-145.18;100.00;46693.59;5007542;28;20034;-71
2023/09/19 04:39:05;;;;;;;12.13;1.80;;;;;;;-145.18;100.00;46691.66;5001909;28;20104;-71
2023/09/19 04:41:30;;;;;;;6.77;1.70;;;;;;;-145.18;100.00;46693.59;5010671;28;20036;-71
2023/09/19 04:43:56;;;;;;;8.23;2.63;;;;;;;-145.18;100.00;46674.06;5015545;28;20413;-71
2023/09/19 04:46:21;;;;;;;9.63;1.90;;;;;;;-145.18;100.00;46683.84;5011790;28;20538;-71
2023/09/19 04:48:47;;;;;;;12.33;2.37;;;;;;;-145.18;100.00;46679.94;5012410;28;20038;-71
2023/09/19 04:51:13;;;;;;;10.83;2.07;;;;;;;-145.18;100.00;46683.84;5015384;28;20045;-71
2023/09/19 04:53:38;;;;;;;8.30;1.90;;;;;;;-145.18;100.00;46683.84;5015700;28;20111;-71
2023/09/19 04:56:06;;;;;;;11.23;2.83;;;;;;;-145.18;100.00;46679.94;5006816;28;20041;-71
2023/09/19 04:58:32;;;;;;;10.87;2.10;;;;;;;-145.18;100.00;46687.75;5006524;28;20041;-71
2023/09/19 05:00:57;;;;;;;11.17;2.17;;;;;;;-145.18;100.00;46677.97;5013824;28;20029;-71
2023/09/19 05:03:22;;;;;;;7.03;1.53;;;;;;;-145.18;100.00;46679.94;5015438;28;20034;-71
2023/09/19 05:05:48;;;;;;;10.37;1.90;;;;;;;-145.18;100.00;46672.13;5007995;28;20103;-71
2023/09/19 05:08:14;;;;;;;8.53;1.53;;;;;;;-145.18;100.00;46670.16;5014945;28;20065;-71
2023/09/19 05:10:40;;;;;;;9.50;1.80;;;;;;;-145.18;100.00;46672.13;5003603;28;20041;-70
2023/09/19 05:13:10;;;;;;;9.83;1.83;;;;;;;-145.18;100.00;46670.16;5013428;28;20030;-70
2023/09/19 05:15:35;;;;;;;13.63;1.90;;;;;;;-145.18;100.00;46672.13;5015361;28;20041;-71
2023/09/19 05:18:01;;;;;;;7.97;1.93;;;;;;;-145.18;100.00;46676.03;5014343;28;20053;-71
2023/09/19 05:20:29;;;;;;;15.43;1.87;;;;;;;-145.18;100.00;46674.06;5014539;28;20057;-71
2023/09/19 05:23:02;;;;;;;5.70;1.77;;;;;;;-145.18;100.00;46676.03;5014474;28;20037;-71
2023/09/19 05:25:38;;;;;;;9.07;1.67;;;;;;;-145.18;100.00;46670.16;5014634;28;20034;-71
2023/09/19 05:28:08;;;;;;;15.47;2.10;;;;;;;-145.18;100.00;46674.06;5014430;28;20038;-71
2023/09/19 05:30:42;;;;;;;12.33;1.77;;;;;;;-145.18;100.00;46681.88;5014323;28;20230;-71
2023/09/19 05:33:08;;;;;;;10.23;2.20;;;;;;;-145.18;100.00;46666.25;5013749;28;20401;-71
2023/09/19 05:35:36;;;;;;;9.00;2.10;;;;;;;-145.18;100.00;46668.22;5015162;28;20041;-71
2023/09/19 05:38:02;;;;;;;12.43;2.13;;;;;;;-145.18;100.00;46668.22;5014670;28;20034;-71
2023/09/19 05:40:27;;;;;;;8.27;1.67;;;;;;;-145.18;100.00;46670.16;5014631;28;20076;-71
2023/09/19 05:42:53;;;;;;;9.73;1.60;;;;;;;-145.18;100.00;46670.16;5010601;28;20034;-71
2023/09/19 05:45:22;;;;;;;10.23;1.87;;;;;;;-145.18;100.00;46662.34;5013153;28;20040;-71
2023/09/19 05:48:04;;;;;;;11.40;2.20;;;;;;;-145.18;100.00;46664.31;5013223;28;20026;-71
2023/09/19 05:50:29;;;;;;;18.67;1.67;;;;;;;-145.18;100.00;46670.16;5007172;28;20037;-71
2023/09/19 05:52:55;;;;;;;11.40;2.43;;;;;;;-145.18;100.00;46666.25;5012925;28;20026;-71
2023/09/19 05:55:24;;;;;;;9.83;2.57;;;;;;;-145.18;100.00;46666.25;5014463;28;20034;-70
2023/09/19 05:57:53;;;;;;;12.47;2.10;;;;;;;-145.18;100.00;46664.31;5013422;28;20489;-71
2023/09/19 06:00:21;;;;;;;11.33;2.17;;;;;;;-145.18;100.00;46658.44;5009064;28;20034;-71
2023/09/19 06:02:52;;;;;;;11.23;2.43;;;;;;;-145.18;100.00;46658.44;5014457;28;20030;-71
2023/09/19 06:05:18;;;;;;;6.77;1.60;;;;;;;-145.18;100.00;46666.25;5001554;28;20137;-71
2023/09/19 06:07:43;;;;;;;5.50;1.93;;;;;;;-145.18;100.00;46656.50;5009240;28;20474;-71
2023/09/19 06:10:09;;;;;;;13.80;2.47;;;;;;;-145.18;100.00;46660.41;5003890;28;20459;-71
2023/09/19 06:12:45;;;;;;;10.00;2.30;;;;;;;-145.18;100.00;46656.50;5008274;28;20037;-71
2023/09/19 06:15:15;;;;;;;12.05;1.90;;;;;;;-145.18;100.00;46656.50;5004587;28;20033;-71
2023/09/19 06:17:47;;;;;;;8.37;1.73;;;;;;;-145.18;100.00;46662.34;5013673;28;20061;-71
2023/09/19 06:20:19;;;;;;;13.10;2.50;;;;;;;-145.18;100.00;46658.44;5006497;28;20042;-71
2023/09/19 06:22:46;;;;;;;8.37;2.53;;;;;;;-145.18;100.00;46664.31;5010267;28;20030;-71
2023/09/19 06:25:12;;;;;;;8.90;2.00;;;;;;;-145.18;100.00;46668.22;5008423;28;20037;-62
2023/09/19 06:27:42;;;;;;;8.23;1.73;;;;;;;-145.18;100.00;46664.31;5014071;28;20390;-62
2023/09/19 06:30:09;;;;;;;11.03;2.17;;;;;;;-145.18;100.00;46666.25;5009736;28;20132;-62
2023/09/19 06:32:35;;;;;;;8.63;2.20;;;;;;;-145.18;100.00;46656.50;5013480;28;20022;-62
2023/09/19 06:35:00;;;;;;;10.03;2.10;;;;;;;-145.18;100.00;46670.16;5009116;28;20079;-62
2023/09/19 06:37:29;;;;;;;17.13;2.37;;;;;;;-145.18;100.00;46666.25;5003633;28;20038;-62
2023/09/19 06:39:56;;;;;;;11.80;2.10;;;;;;;-145.18;100.00;46662.34;5011091;28;20033;-62
2023/09/19 06:42:22;;;;;;;6.93;1.80;;;;;;;-145.18;100.00;46660.41;5010358;28;20033;-62
2023/09/19 06:44:48;;;;;;;18.20;2.83;;;;;;;-145.18;100.00;46656.50;5012923;28;20527;-62
2023/09/19 06:47:14;;;;;;;10.00;1.80;;;;;;;-145.18;100.00;46664.31;5013323;28;20033;-62
2023/09/19 06:49:39;;;;;;;10.47;1.90;;;;;;;-145.18;100.00;46666.25;5012768;28;20390;-62
2023/09/19 06:52:05;;;;;;;13.03;2.07;;;;;;;-145.18;100.00;46668.22;5013474;28;20045;-62
2023/09/19 06:54:31;;;;;;;13.13;2.37;;;;;;;-145.18;100.00;46668.22;5011833;28;20034;-62
2023/09/19 06:56:58;;;;;;;9.87;2.00;;;;;;;-145.18;100.00;46658.44;5013372;28;20041;-62
2023/09/19 06:59:24;;;;;;;12.93;2.17;;;;;;;-145.18;100.00;46670.16;5011658;28;20034;-62
2023/09/19 07:01:50;;;;;;;8.43;2.47;;;;;;;-145.18;100.00;46660.41;5011632;28;20081;-62
2023/09/19 07:04:16;;;;;;;12.73;2.83;;;;;;;-145.18;100.00;46664.31;5003384;28;20119;-62
2023/09/19 07:06:42;;;;;;;8.00;2.17;;;;;;;-145.18;100.00;46666.25;5013339;28;20034;-62
2023/09/19 07:09:08;;;;;;;12.63;2.70;;;;;;;-145.18;100.00;46662.34;5005800;28;20049;-62
2023/09/19 07:11:34;;;;;;;16.37;2.30;;;;;;;-145.18;100.00;46658.44;5000871;28;20084;-62
2023/09/19 07:13:59;;;;;;;12.47;2.77;;;;;;;-145.18;100.00;46658.44;5002696;28;20096;-62
2023/09/19 07:16:29;;;;;;;11.80;2.10;;;;;;;-145.18;100.00;46660.41;5012551;28;20476;-63
2023/09/19 07:18:56;;;;;;;14.53;2.07;;;;;;;-145.18;100.00;46658.44;5006321;28;20047;-62
2023/09/19 07:21:22;;;;;;;6.10;1.83;;;;;;;-145.18;100.00;46660.41;5006990;28;20029;-62
2023/09/19 07:23:47;;;;;;;17.00;2.47;;;;;;;-145.18;100.00;46662.34;5008956;28;20030;-62
2023/09/19 07:26:13;;;;;;;7.40;2.27;;;;;;;-145.18;100.00;46658.44;5013082;28;20478;-62
2023/09/19 07:28:38;;;;;;;11.87;1.93;;;;;;;-145.18;100.00;46656.50;5010803;28;20034;-62
2023/09/19 07:31:04;;;;;;;16.23;2.70;;;;;;;-145.18;100.00;46654.53;5012660;28;20177;-62
2023/09/19 07:33:30;;;;;;;16.03;3.37;;;;;;;-145.18;100.00;46658.44;5012059;28;20116;-62
2023/09/19 07:35:56;;;;;;;13.20;2.37;;;;;;;-145.18;100.00;46658.44;5010530;28;20045;-62
2023/09/19 07:38:22;;;;;;;10.73;1.83;;;;;;;-145.18;100.00;46658.44;5011660;28;20030;-62
2023/09/19 07:40:48;;;;;;;12.57;2.23;;;;;;;-145.18;100.00;46662.34;5007672;28;20405;-62
2023/09/19 07:43:13;;;;;;;12.10;2.23;;;;;;;-145.18;100.00;46662.34;5012328;28;20108;-62
2023/09/19 07:45:39;;;;;;;13.93;1.97;;;;;;;-145.18;100.00;46660.41;5009809;28;20069;-62
2023/09/19 07:48:06;;;;;;;15.07;2.47;;;;;;;-145.18;100.00;46662.34;5011718;28;20036;-62
2023/09/19 07:50:36;;;;;;;9.37;2.07;;;;;;;-145.18;100.00;46662.34;5007594;28;20068;-62
2023/09/19 07:53:04;;;;;;;10.93;2.17;;;;;;;-145.18;100.00;46666.25;5012127;28;20030;-62
2023/09/19 07:55:30;;;;;;;12.53;2.40;;;;;;;-145.18;100.00;46660.41;5011449;28;20440;-63
2023/09/19 07:57:56;;;;;;;13.97;2.30;;;;;;;-145.18;100.00;46660.41;5012491;28;20022;-62
2023/09/19 08:00:21;;;;;;;15.57;2.87;;;;;;;-145.18;100.00;46672.13;5010680;28;20032;-63
2023/09/19 08:02:51;;;;;;;14.00;3.13;;;;;;;-145.18;100.00;46666.25;5012104;28;20048;-62
2023/09/19 08:05:18;;;;;;;9.17;2.03;;;;;;;-145.18;100.00;46666.25;5004898;28;20028;-62
2023/09/19 08:07:52;;;;;;;15.13;2.13;;;;;;;-145.18;100.00;46670.16;5011631;28;20486;-62
2023/09/19 08:10:19;;;;;;;16.73;2.63;;;;;;;-145.18;100.00;46670.16;5010177;28;20037;-63
2023/09/19 08:12:46;;;;;;;13.23;2.77;;;;;;;-145.18;100.00;46672.13;5010456;28;20410;-62
2023/09/19 08:15:19;;;;;;;17.87;2.20;;;;;;;-145.18;100.00;46670.16;5010319;28;20084;-63
2023/09/19 08:17:45;;;;;;;16.10;2.00;;;;;;;-145.18;100.00;46668.22;5012074;28;20034;-62
2023/09/19 08:20:17;;;;;;;17.20;2.43;;;;;;;-145.18;100.00;46668.22;5009639;28;20052;-62
2023/09/19 08:22:56;;;;;;;9.40;2.27;;;;;;;-145.18;100.00;46672.13;5008612;28;20497;-62
2023/09/19 08:25:22;;;;;;;11.80;2.23;;;;;;;-145.18;100.00;46676.03;5009641;28;20046;-63
2023/09/19 08:27:49;;;;;;;11.33;2.43;;;;;;;-145.18;100.00;46676.03;5011820;28;20026;-62
2023/09/19 08:30:24;;;;;;;11.50;2.13;;;;;;;-145.18;100.00;46672.13;5011697;28;20033;-62
2023/09/19 08:32:50;;;;;;;12.17;2.10;;;;;;;-145.18;100.00;46674.06;5011965;28;20029;-63
2023/09/19 08:35:16;;;;;;;12.87;2.73;;;;;;;-145.18;100.00;46679.94;4999578;28;20267;-63
2023/09/19 08:37:42;;;;;;;20.27;3.33;;;;;;;-145.18;100.00;46679.94;5006343;28;20064;-63
2023/09/19 08:40:12;;;;;;;12.23;2.10;;;;;;;-145.18;100.00;46681.88;5002633;28;20379;-62
2023/09/19 08:42:51;;;;;;;12.30;2.00;;;;;;;-145.18;100.00;46679.94;5011691;28;20080;-63
2023/09/19 08:45:17;;;;;;;12.57;2.10;;;;;;;-145.18;100.00;46679.94;5002857;28;20400;-72
2023/09/19 08:47:50;;;;;;;12.03;2.50;;;;;;;-145.18;100.00;46679.94;5011570;28;20022;-72
2023/09/19 08:50:29;;;;;;;16.50;2.87;;;;;;;-145.18;100.00;46681.88;5005327;28;20030;-72
2023/09/19 08:52:57;;;;;;;13.27;2.23;;;;;;;-145.18;100.00;46679.94;5001190;28;20109;-72
2023/09/19 08:55:28;;;;;;;10.43;1.90;;;;;;;-145.18;100.00;46679.94;4996600;28;20066;-72
2023/09/19 08:58:01;;;;;;;13.77;2.80;;;;;;;-145.18;100.00;46681.88;5002614;28;20481;-72
2023/09/19 09:00:28;;;;;;;12.93;2.23;;;;;;;-145.18;100.00;46681.88;5004431;28;20110;-72
2023/09/19 09:02:55;;;;;;;15.00;2.40;;;;;;;-145.18;100.00;46685.78;5006594;28;20038;-72
2023/09/19 09:05:22;;;;;;;17.23;2.57;;;;;;;-145.18;100.00;46679.94;5010627;28;20084;-72
2023/09/19 09:07:52;;;;;;;13.87;2.10;;;;;;;-145.18;100.00;46679.94;5011814;28;20112;-72
2023/09/19 09:10:23;;;;;;;16.43;3.03;;;;;;;-145.18;100.00;46683.84;5010566;28;20366;-72
2023/09/19 09:12:55;;;;;;;15.23;3.13;;;;;;;-145.18;100.00;46693.59;5010724;28;20490;-72
2023/09/19 09:15:23;;;;;;;12.33;3.63;;;;;;;-145.18;100.00;46685.78;5011854;28;20034;-72
2023/09/19 09:17:50;;;;;;;9.10;2.30;;;;;;;-145.18;100.00;46683.84;5011389;28;20026;-72
2023/09/19 09:20:17;;;;;;;7.70;1.80;;;;;;;-145.18;100.00;46666.25;5010033;28;20116;-72
2023/09/19 09:22:53;;;;;;;10.70;2.53;;;;;;;-145.18;100.00;46664.31;5011377;28;20441;-72
2023/09/19 09:25:23;;;;;;;11.63;2.13;;;;;;;-145.18;100.00;46603.75;4994700;28;20037;-72
2023/09/19 09:28:02;;;;;;;8.93;2.10;;;;;;;-145.18;100.00;46603.75;5014919;28;20096;-72
2023/09/19 09:30:36;;;;;;;19.13;3.80;;;;;;;-145.18;100.00;46586.16;5006900;28;20603;-72
2023/09/19 09:33:10;;;;;;;13.23;2.73;;;;;;;-145.18;100.00;46590.06;5014497;28;20041;-72
2023/09/19 09:35:36;;;;;;;10.53;2.50;;;;;;;-145.18;100.00;46574.44;5008704;28;20061;-72
2023/09/19 09:38:08;;;;;;;14.80;2.40;;;;;;;-145.18;100.00;46572.50;5014816;28;20068;-72
2023/09/19 09:43:27;;;;;;;12.00;3.23;;;;;;;-145.18;100.00;46568.59;5014441;28;20034;-73
2023/09/19 09:46:29;;;;;;;7.13;1.83;;;;;;;-145.18;100.00;46582.25;5002680;28;20480;-73
2023/09/19 09:52:05;;;;;;;9.40;2.93;;;;;;;-145.18;100.00;46586.16;5014114;28;20405;-73
2023/09/19 09:54:37;;;;;;;10.43;2.07;;;;;;;-145.18;100.00;46584.22;5003813;28;20034;-73
2023/09/19 09:57:25;;;;;;;10.33;1.97;;;;;;;-145.18;100.00;46584.22;5002080;28;20509;-73
2023/09/19 09:59:58;;;;;;;11.27;2.17;;;;;;;-145.18;100.00;46580.31;5011417;28;20031;-72
2023/09/19 10:02:36;;;;;;;13.07;2.40;;;;;;;-145.18;100.00;46566.63;5003316;28;20033;-73
2023/09/19 10:07:42;;;;;;;12.30;2.40;;;;;;;-145.18;100.00;46560.78;5014551;28;20367;-72
2023/09/19 10:10:16;;;;;;;9.50;2.37;;;;;;;-145.18;100.00;46572.50;5006477;28;20093;-73
2023/09/19 10:12:45;;;;;;;9.70;2.30;;;;;;;-145.18;100.00;46564.69;5009104;28;20123;-73
2023/09/19 10:15:15;;;;;;;10.77;2.10;;;;;;;-145.18;100.00;46564.69;5009998;28;20030;-73
2023/09/19 10:17:43;;;;;;;9.70;2.40;;;;;;;-145.18;100.00;46564.69;5006814;28;20123;-73
2023/09/19 10:20:22;;;;;;;8.67;2.23;;;;;;;-145.18;100.00;46556.88;4998247;28;20054;-74
2023/09/19 10:22:57;;;;;;;11.60;1.90;;;;;;;-145.18;100.00;46564.69;5011162;28;20478;-73
2023/09/19 10:25:30;;;;;;;9.43;1.77;;;;;;;-145.18;100.00;46568.59;5007053;28;20093;-73
2023/09/19 10:28:02;;;;;;;10.23;1.63;;;;;;;-145.18;100.00;46562.72;5008954;28;20350;-73
2023/09/19 10:30:30;;;;;;;11.37;1.93;;;;;;;-145.18;100.00;46570.53;5008132;28;20044;-73
2023/09/19 10:33:02;;;;;;;8.90;1.83;;;;;;;-145.18;100.00;46570.53;5013156;28;20420;-73
2023/09/19 10:35:28;;;;;;;11.77;2.87;;;;;;;-145.18;100.00;46578.34;5008930;28;20026;-73
2023/09/19 10:37:56;;;;;;;5.93;1.80;;;;;;;-145.18;100.00;46576.41;5013813;28;20018;-73
2023/09/19 10:40:30;;;;;;;9.93;1.70;;;;;;;-145.18;100.00;46562.72;5006514;28;20040;-73
2023/09/19 10:43:03;;;;;;;9.17;1.87;;;;;;;-145.18;100.00;46576.41;5013301;28;20072;-72
2023/09/19 10:45:31;;;;;;;9.97;1.93;;;;;;;-145.18;100.00;46582.25;5010770;28;20030;-73
2023/09/19 10:47:57;;;;;;;5.73;2.40;;;;;;;-145.18;100.00;46568.59;5012905;28;20042;-73
2023/09/19 10:50:23;;;;;;;9.00;2.03;;;;;;;-145.18;100.00;46576.41;5012350;28;20478;-73
2023/09/19 10:52:57;;;;;;;12.07;2.07;;;;;;;-145.18;100.00;46572.50;5013286;28;20470;-73
2023/09/19 10:55:28;;;;;;;7.97;2.00;;;;;;;-145.18;100.00;46570.53;5009299;28;20041;-73
2023/09/19 10:57:53;;;;;;;9.23;1.83;;;;;;;-145.18;100.00;46572.50;5005434;28;20022;-73
2023/09/19 11:00:26;;;;;;;6.73;1.50;;;;;;;-145.18;100.00;46578.34;5005157;28;20401;-63
2023/09/19 11:03:22;;;;;;;9.83;1.97;;;;;;;-145.18;100.00;46570.53;5011798;28;20053;-63
2023/09/19 11:06:13;;;;;;;6.40;2.20;;;;;;;-145.18;100.00;46558.81;5001923;28;20033;-72
2023/09/19 11:11:40;;;;;;;4.60;1.40;;;;;;;-145.18;100.00;46576.41;5005839;28;20064;-73
2023/09/19 11:14:23;;;;;;;7.77;1.50;;;;;;;-145.18;100.00;46582.25;5008692;28;20077;-73
2023/09/19 11:17:11;;;;;;;4.77;1.63;;;;;;;-145.18;100.00;46574.44;5007310;28;20385;-73
2023/09/19 11:22:53;;;;;;;8.90;1.80;;;;;;;-145.18;100.00;46580.31;5010177;28;20037;-73
2023/09/19 11:25:30;;;;;;;11.30;1.60;;;;;;;-145.18;100.00;46576.41;5012568;28;20056;-73
2023/09/19 11:28:26;;;;;;;4.73;1.30;;;;;;;-145.18;100.00;46578.34;5004841;28;20033;-73